sensor_id;sensor_type;location;lat;lon;timestamp;P1;durP1;ratioP1;P2;durP2;ratioP2
6828;SDS011;17930;48.592;8.868;2022-12-18T00:01:49;51.85;;;12.30;;
6828;SDS011;17930;48.592;8.868;2022-12-18T00:04:18;19.92;;;7.82;;
6828;SDS011;17930;48.592;8.868;2022-12-18T00:06:47;31.88;;;11.75;;
6828;SDS011;17930;48.592;8.868;2022-12-18T00:09:14;25.05;;;11.45;;
6828;SDS011;17930;48.592;8.868;2022-12-18T00:11:41;21.40;;;11.13;;
6828;SDS011;17930;48.592;8.868;2022-12-18T00:14:09;24.67;;;11.35;;
6828;SDS011;17930;48.592;8.868;2022-12-18T00:16:38;25.45;;;10.63;;
6828;SDS011;17930;48.592;8.868;2022-12-18T00:19:07;22.63;;;10.65;;
6828;SDS011;17930;48.592;8.868;2022-12-18T00:21:35;68.05;;;12.80;;
6828;SDS011;17930;48.592;8.868;2022-12-18T00:24:01;31.67;;;11.88;;
6828;SDS011;17930;48.592;8.868;2022-12-18T00:26:29;25.80;;;11.82;;
6828;SDS011;17930;48.592;8.868;2022-12-18T00:28:58;23.23;;;10.60;;
6828;SDS011;17930;48.592;8.868;2022-12-18T00:31:25;41.95;;;13.43;;
6828;SDS011;17930;48.592;8.868;2022-12-18T00:33:53;26.10;;;11.27;;
6828;SDS011;17930;48.592;8.868;2022-12-18T00:36:21;29.58;;;13.13;;
6828;SDS011;17930;48.592;8.868;2022-12-18T00:38:50;30.80;;;11.88;;
6828;SDS011;17930;48.592;8.868;2022-12-18T00:41:18;33.58;;;13.48;;
6828;SDS011;17930;48.592;8.868;2022-12-18T00:43:59;22.13;;;8.98;;
6828;SDS011;17930;48.592;8.868;2022-12-18T00:46:25;33.03;;;12.38;;
6828;SDS011;17930;48.592;8.868;2022-12-18T00:48:52;28.60;;;11.40;;
6828;SDS011;17930;48.592;8.868;2022-12-18T00:51:20;18.50;;;10.30;;
6828;SDS011;17930;48.592;8.868;2022-12-18T00:53:47;25.70;;;11.40;;
6828;SDS011;17930;48.592;8.868;2022-12-18T00:56:14;34.47;;;14.32;;
6828;SDS011;17930;48.592;8.868;2022-12-18T00:58:41;35.25;;;9.75;;
6828;SDS011;17930;48.592;8.868;2022-12-18T01:01:07;26.75;;;10.32;;
6828;SDS011;17930;48.592;8.868;2022-12-18T01:03:34;26.15;;;9.68;;
6828;SDS011;17930;48.592;8.868;2022-12-18T01:06:04;26.55;;;11.00;;
6828;SDS011;17930;48.592;8.868;2022-12-18T01:08:33;22.90;;;10.55;;
6828;SDS011;17930;48.592;8.868;2022-12-18T01:11:00;26.45;;;11.75;;
6828;SDS011;17930;48.592;8.868;2022-12-18T01:13:27;29.95;;;11.65;;
6828;SDS011;17930;48.592;8.868;2022-12-18T01:15:54;19.17;;;9.07;;
6828;SDS011;17930;48.592;8.868;2022-12-18T01:18:20;33.15;;;11.40;;
6828;SDS011;17930;48.592;8.868;2022-12-18T01:20:47;19.10;;;9.80;;
6828;SDS011;17930;48.592;8.868;2022-12-18T01:23:14;30.58;;;10.85;;
6828;SDS011;17930;48.592;8.868;2022-12-18T01:25:42;19.85;;;9.02;;
6828;SDS011;17930;48.592;8.868;2022-12-18T01:28:09;22.05;;;8.93;;
6828;SDS011;17930;48.592;8.868;2022-12-18T01:30:36;25.27;;;9.45;;
6828;SDS011;17930;48.592;8.868;2022-12-18T01:33:03;24.27;;;10.65;;
6828;SDS011;17930;48.592;8.868;2022-12-18T01:35:30;24.42;;;10.65;;
6828;SDS011;17930;48.592;8.868;2022-12-18T01:37:57;24.13;;;9.95;;
6828;SDS011;17930;48.592;8.868;2022-12-18T01:40:24;24.45;;;11.57;;
6828;SDS011;17930;48.592;8.868;2022-12-18T01:42:52;21.45;;;8.85;;
6828;SDS011;17930;48.592;8.868;2022-12-18T01:45:23;30.48;;;12.20;;
6828;SDS011;17930;48.592;8.868;2022-12-18T01:47:52;23.25;;;11.52;;
6828;SDS011;17930;48.592;8.868;2022-12-18T01:50:21;22.00;;;10.55;;
6828;SDS011;17930;48.592;8.868;2022-12-18T01:52:51;25.27;;;10.82;;
6828;SDS011;17930;48.592;8.868;2022-12-18T01:55:20;28.30;;;10.25;;
6828;SDS011;17930;48.592;8.868;2022-12-18T01:57:51;25.25;;;10.32;;
6828;SDS011;17930;48.592;8.868;2022-12-18T02:00:20;35.13;;;11.93;;
6828;SDS011;17930;48.592;8.868;2022-12-18T02:02:49;19.08;;;9.88;;
6828;SDS011;17930;48.592;8.868;2022-12-18T02:05:16;27.45;;;11.20;;
6828;SDS011;17930;48.592;8.868;2022-12-18T02:07:53;30.67;;;11.57;;
6828;SDS011;17930;48.592;8.868;2022-12-18T02:10:29;24.55;;;10.05;;
6828;SDS011;17930;48.592;8.868;2022-12-18T02:13:02;29.13;;;11.35;;
6828;SDS011;17930;48.592;8.868;2022-12-18T02:15:39;29.77;;;12.38;;
6828;SDS011;17930;48.592;8.868;2022-12-18T02:18:10;41.65;;;13.05;;
6828;SDS011;17930;48.592;8.868;2022-12-18T02:20:43;21.73;;;10.20;;
6828;SDS011;17930;48.592;8.868;2022-12-18T02:23:19;25.85;;;11.80;;
6828;SDS011;17930;48.592;8.868;2022-12-18T02:26:18;35.85;;;11.05;;
6828;SDS011;17930;48.592;8.868;2022-12-18T02:28:49;21.70;;;11.00;;
6828;SDS011;17930;48.592;8.868;2022-12-18T02:31:21;24.92;;;10.52;;
6828;SDS011;17930;48.592;8.868;2022-12-18T02:33:52;34.20;;;12.85;;
6828;SDS011;17930;48.592;8.868;2022-12-18T02:36:25;31.83;;;11.55;;
6828;SDS011;17930;48.592;8.868;2022-12-18T02:38:53;29.27;;;12.25;;
6828;SDS011;17930;48.592;8.868;2022-12-18T02:41:24;31.48;;;12.27;;
6828;SDS011;17930;48.592;8.868;2022-12-18T02:43:53;32.25;;;12.85;;
6828;SDS011;17930;48.592;8.868;2022-12-18T02:46:30;31.27;;;12.30;;
6828;SDS011;17930;48.592;8.868;2022-12-18T02:49:01;27.77;;;12.55;;
6828;SDS011;17930;48.592;8.868;2022-12-18T02:51:33;26.42;;;12.05;;
6828;SDS011;17930;48.592;8.868;2022-12-18T02:54:13;25.45;;;12.00;;
6828;SDS011;17930;48.592;8.868;2022-12-18T02:56:50;36.60;;;12.82;;
6828;SDS011;17930;48.592;8.868;2022-12-18T02:59:21;42.53;;;13.55;;
6828;SDS011;17930;48.592;8.868;2022-12-18T03:01:54;31.08;;;11.48;;
6828;SDS011;17930;48.592;8.868;2022-12-18T03:04:25;32.85;;;13.77;;
6828;SDS011;17930;48.592;8.868;2022-12-18T03:06:55;29.83;;;11.48;;
6828;SDS011;17930;48.592;8.868;2022-12-18T03:09:25;33.08;;;13.35;;
6828;SDS011;17930;48.592;8.868;2022-12-18T03:11:59;32.53;;;12.63;;
6828;SDS011;17930;48.592;8.868;2022-12-18T03:14:49;36.65;;;11.18;;
6828;SDS011;17930;48.592;8.868;2022-12-18T03:17:19;26.67;;;11.63;;
6828;SDS011;17930;48.592;8.868;2022-12-18T03:19:49;25.60;;;12.35;;
6828;SDS011;17930;48.592;8.868;2022-12-18T03:22:18;38.75;;;12.35;;
6828;SDS011;17930;48.592;8.868;2022-12-18T03:24:47;38.08;;;13.05;;
6828;SDS011;17930;48.592;8.868;2022-12-18T03:27:18;40.97;;;15.23;;
6828;SDS011;17930;48.592;8.868;2022-12-18T03:29:48;30.58;;;12.13;;
6828;SDS011;17930;48.592;8.868;2022-12-18T03:32:23;38.17;;;13.63;;
6828;SDS011;17930;48.592;8.868;2022-12-18T03:34:55;32.50;;;12.43;;
6828;SDS011;17930;48.592;8.868;2022-12-18T03:37:25;28.05;;;11.43;;
6828;SDS011;17930;48.592;8.868;2022-12-18T03:40:00;37.85;;;13.32;;
6828;SDS011;17930;48.592;8.868;2022-12-18T03:42:28;37.70;;;13.95;;
6828;SDS011;17930;48.592;8.868;2022-12-18T03:45:01;39.67;;;14.38;;
6828;SDS011;17930;48.592;8.868;2022-12-18T03:47:35;42.15;;;13.77;;
6828;SDS011;17930;48.592;8.868;2022-12-18T03:50:09;40.63;;;13.95;;
6828;SDS011;17930;48.592;8.868;2022-12-18T03:52:41;44.15;;;14.70;;
6828;SDS011;17930;48.592;8.868;2022-12-18T03:55:15;41.45;;;14.93;;
6828;SDS011;17930;48.592;8.868;2022-12-18T03:57:45;33.63;;;12.75;;
6828;SDS011;17930;48.592;8.868;2022-12-18T04:00:15;54.88;;;15.98;;
6828;SDS011;17930;48.592;8.868;2022-12-18T04:02:44;30.30;;;13.85;;
6828;SDS011;17930;48.592;8.868;2022-12-18T04:05:15;38.78;;;13.60;;
6828;SDS011;17930;48.592;8.868;2022-12-18T04:07:42;35.08;;;12.82;;
6828;SDS011;17930;48.592;8.868;2022-12-18T04:10:11;38.15;;;13.30;;
6828;SDS011;17930;48.592;8.868;2022-12-18T04:12:40;43.08;;;15.85;;
6828;SDS011;17930;48.592;8.868;2022-12-18T04:15:08;41.35;;;13.18;;
6828;SDS011;17930;48.592;8.868;2022-12-18T04:17:36;42.80;;;14.95;;
6828;SDS011;17930;48.592;8.868;2022-12-18T04:20:04;39.42;;;14.30;;
6828;SDS011;17930;48.592;8.868;2022-12-18T04:22:31;51.28;;;14.23;;
6828;SDS011;17930;48.592;8.868;2022-12-18T04:24:58;51.53;;;14.20;;
6828;SDS011;17930;48.592;8.868;2022-12-18T04:27:25;45.38;;;14.93;;
6828;SDS011;17930;48.592;8.868;2022-12-18T04:29:52;37.78;;;13.40;;
6828;SDS011;17930;48.592;8.868;2022-12-18T04:32:20;45.45;;;14.70;;
6828;SDS011;17930;48.592;8.868;2022-12-18T04:34:47;45.22;;;15.02;;
6828;SDS011;17930;48.592;8.868;2022-12-18T04:37:13;48.08;;;14.45;;
6828;SDS011;17930;48.592;8.868;2022-12-18T04:39:40;45.50;;;14.15;;
6828;SDS011;17930;48.592;8.868;2022-12-18T04:42:07;51.53;;;16.92;;
6828;SDS011;17930;48.592;8.868;2022-12-18T04:44:33;43.53;;;14.35;;
6828;SDS011;17930;48.592;8.868;2022-12-18T04:47:00;37.70;;;13.75;;
6828;SDS011;17930;48.592;8.868;2022-12-18T04:49:28;49.00;;;15.15;;
6828;SDS011;17930;48.592;8.868;2022-12-18T04:51:55;38.03;;;14.13;;
6828;SDS011;17930;48.592;8.868;2022-12-18T04:54:21;39.80;;;14.45;;
6828;SDS011;17930;48.592;8.868;2022-12-18T04:56:48;43.88;;;15.48;;
6828;SDS011;17930;48.592;8.868;2022-12-18T04:59:15;45.13;;;13.02;;
6828;SDS011;17930;48.592;8.868;2022-12-18T05:01:42;42.38;;;15.05;;
6828;SDS011;17930;48.592;8.868;2022-12-18T05:04:08;57.03;;;17.00;;
6828;SDS011;17930;48.592;8.868;2022-12-18T05:06:36;51.88;;;15.88;;
6828;SDS011;17930;48.592;8.868;2022-12-18T05:09:03;35.85;;;13.80;;
6828;SDS011;17930;48.592;8.868;2022-12-18T05:11:30;31.85;;;13.32;;
6828;SDS011;17930;48.592;8.868;2022-12-18T05:13:56;46.97;;;15.30;;
6828;SDS011;17930;48.592;8.868;2022-12-18T05:16:23;45.40;;;15.25;;
6828;SDS011;17930;48.592;8.868;2022-12-18T05:18:50;44.42;;;14.63;;
6828;SDS011;17930;48.592;8.868;2022-12-18T05:21:16;41.00;;;15.40;;
6828;SDS011;17930;48.592;8.868;2022-12-18T05:23:44;43.00;;;14.18;;
6828;SDS011;17930;48.592;8.868;2022-12-18T05:26:14;57.35;;;15.75;;
6828;SDS011;17930;48.592;8.868;2022-12-18T05:28:42;50.97;;;15.35;;
6828;SDS011;17930;48.592;8.868;2022-12-18T05:31:09;36.90;;;12.75;;
6828;SDS011;17930;48.592;8.868;2022-12-18T05:33:36;40.67;;;13.80;;
6828;SDS011;17930;48.592;8.868;2022-12-18T05:36:03;48.15;;;14.93;;
6828;SDS011;17930;48.592;8.868;2022-12-18T05:38:33;47.50;;;15.23;;
6828;SDS011;17930;48.592;8.868;2022-12-18T05:41:02;58.67;;;15.55;;
6828;SDS011;17930;48.592;8.868;2022-12-18T05:43:30;47.50;;;16.67;;
6828;SDS011;17930;48.592;8.868;2022-12-18T05:45:57;50.58;;;17.30;;
6828;SDS011;17930;48.592;8.868;2022-12-18T05:48:24;47.10;;;14.95;;
6828;SDS011;17930;48.592;8.868;2022-12-18T05:50:50;51.80;;;13.95;;
6828;SDS011;17930;48.592;8.868;2022-12-18T05:53:19;45.85;;;15.35;;
6828;SDS011;17930;48.592;8.868;2022-12-18T05:55:46;40.45;;;15.95;;
6828;SDS011;17930;48.592;8.868;2022-12-18T05:58:15;47.50;;;15.77;;
6828;SDS011;17930;48.592;8.868;2022-12-18T06:00:43;44.85;;;16.88;;
6828;SDS011;17930;48.592;8.868;2022-12-18T06:03:11;61.50;;;18.15;;
6828;SDS011;17930;48.592;8.868;2022-12-18T06:05:39;36.10;;;14.05;;
6828;SDS011;17930;48.592;8.868;2022-12-18T06:08:07;56.45;;;13.20;;
6828;SDS011;17930;48.592;8.868;2022-12-18T06:10:34;53.60;;;15.13;;
6828;SDS011;17930;48.592;8.868;2022-12-18T06:13:01;54.05;;;14.77;;
6828;SDS011;17930;48.592;8.868;2022-12-18T06:15:29;43.92;;;15.48;;
6828;SDS011;17930;48.592;8.868;2022-12-18T06:17:56;61.50;;;17.42;;
6828;SDS011;17930;48.592;8.868;2022-12-18T06:20:23;55.13;;;17.25;;
6828;SDS011;17930;48.592;8.868;2022-12-18T06:22:49;53.20;;;16.30;;
6828;SDS011;17930;48.592;8.868;2022-12-18T06:25:16;41.00;;;14.95;;
6828;SDS011;17930;48.592;8.868;2022-12-18T06:27:43;62.05;;;22.50;;
6828;SDS011;17930;48.592;8.868;2022-12-18T06:30:10;36.75;;;14.57;;
6828;SDS011;17930;48.592;8.868;2022-12-18T06:32:39;41.92;;;14.07;;
6828;SDS011;17930;48.592;8.868;2022-12-18T06:35:06;34.65;;;13.43;;
6828;SDS011;17930;48.592;8.868;2022-12-18T06:37:33;47.20;;;14.60;;
6828;SDS011;17930;48.592;8.868;2022-12-18T06:40:00;33.85;;;13.48;;
6828;SDS011;17930;48.592;8.868;2022-12-18T06:42:28;41.83;;;12.45;;
6828;SDS011;17930;48.592;8.868;2022-12-18T06:44:54;42.05;;;14.15;;
6828;SDS011;17930;48.592;8.868;2022-12-18T06:47:21;45.22;;;14.52;;
6828;SDS011;17930;48.592;8.868;2022-12-18T06:49:49;45.05;;;13.90;;
6828;SDS011;17930;48.592;8.868;2022-12-18T06:52:16;58.92;;;16.25;;
6828;SDS011;17930;48.592;8.868;2022-12-18T06:54:43;49.65;;;15.85;;
6828;SDS011;17930;48.592;8.868;2022-12-18T06:57:09;44.97;;;14.05;;
6828;SDS011;17930;48.592;8.868;2022-12-18T06:59:36;61.45;;;16.20;;
6828;SDS011;17930;48.592;8.868;2022-12-18T07:02:03;38.85;;;13.15;;
6828;SDS011;17930;48.592;8.868;2022-12-18T07:04:29;57.78;;;15.48;;
6828;SDS011;17930;48.592;8.868;2022-12-18T07:06:58;46.20;;;13.50;;
6828;SDS011;17930;48.592;8.868;2022-12-18T07:09:24;67.35;;;13.40;;
6828;SDS011;17930;48.592;8.868;2022-12-18T07:11:51;39.10;;;12.73;;
6828;SDS011;17930;48.592;8.868;2022-12-18T07:14:18;46.10;;;14.73;;
6828;SDS011;17930;48.592;8.868;2022-12-18T07:16:44;54.78;;;14.57;;
6828;SDS011;17930;48.592;8.868;2022-12-18T07:19:11;50.25;;;15.02;;
6828;SDS011;17930;48.592;8.868;2022-12-18T07:21:38;49.55;;;15.32;;
6828;SDS011;17930;48.592;8.868;2022-12-18T07:24:06;39.15;;;14.38;;
6828;SDS011;17930;48.592;8.868;2022-12-18T07:26:33;42.67;;;12.85;;
6828;SDS011;17930;48.592;8.868;2022-12-18T07:29:00;48.58;;;15.27;;
6828;SDS011;17930;48.592;8.868;2022-12-18T07:31:27;51.60;;;15.75;;
6828;SDS011;17930;48.592;8.868;2022-12-18T07:33:54;47.85;;;16.02;;
6828;SDS011;17930;48.592;8.868;2022-12-18T07:36:20;48.05;;;16.45;;
6828;SDS011;17930;48.592;8.868;2022-12-18T07:38:47;35.63;;;13.93;;
6828;SDS011;17930;48.592;8.868;2022-12-18T07:41:16;33.58;;;14.82;;
6828;SDS011;17930;48.592;8.868;2022-12-18T07:43:44;44.20;;;14.95;;
6828;SDS011;17930;48.592;8.868;2022-12-18T07:46:11;48.42;;;14.30;;
6828;SDS011;17930;48.592;8.868;2022-12-18T07:48:39;45.15;;;14.40;;
6828;SDS011;17930;48.592;8.868;2022-12-18T07:51:06;45.72;;;15.00;;
6828;SDS011;17930;48.592;8.868;2022-12-18T07:53:34;40.03;;;15.02;;
6828;SDS011;17930;48.592;8.868;2022-12-18T07:56:02;55.72;;;14.07;;
6828;SDS011;17930;48.592;8.868;2022-12-18T07:58:32;39.58;;;14.43;;
6828;SDS011;17930;48.592;8.868;2022-12-18T08:01:02;51.33;;;16.23;;
6828;SDS011;17930;48.592;8.868;2022-12-18T08:03:29;48.35;;;15.98;;
6828;SDS011;17930;48.592;8.868;2022-12-18T08:05:58;43.53;;;15.10;;
6828;SDS011;17930;48.592;8.868;2022-12-18T08:08:25;63.63;;;15.82;;
6828;SDS011;17930;48.592;8.868;2022-12-18T08:10:52;54.20;;;15.40;;
6828;SDS011;17930;48.592;8.868;2022-12-18T08:13:18;68.55;;;16.63;;
6828;SDS011;17930;48.592;8.868;2022-12-18T08:15:48;43.22;;;13.20;;
6828;SDS011;17930;48.592;8.868;2022-12-18T08:18:22;40.60;;;13.88;;
6828;SDS011;17930;48.592;8.868;2022-12-18T08:20:49;37.45;;;13.02;;
6828;SDS011;17930;48.592;8.868;2022-12-18T08:23:15;40.78;;;14.02;;
6828;SDS011;17930;48.592;8.868;2022-12-18T08:25:42;52.60;;;17.17;;
6828;SDS011;17930;48.592;8.868;2022-12-18T08:28:09;57.90;;;18.88;;
6828;SDS011;17930;48.592;8.868;2022-12-18T08:30:36;44.85;;;16.92;;
6828;SDS011;17930;48.592;8.868;2022-12-18T08:33:04;45.95;;;15.27;;
6828;SDS011;17930;48.592;8.868;2022-12-18T08:35:34;36.78;;;12.55;;
6828;SDS011;17930;48.592;8.868;2022-12-18T08:38:01;39.65;;;13.30;;
6828;SDS011;17930;48.592;8.868;2022-12-18T08:40:28;41.28;;;13.70;;
6828;SDS011;17930;48.592;8.868;2022-12-18T08:42:55;39.80;;;13.32;;
6828;SDS011;17930;48.592;8.868;2022-12-18T08:45:39;29.45;;;11.52;;
6828;SDS011;17930;48.592;8.868;2022-12-18T08:48:10;41.40;;;14.02;;
6828;SDS011;17930;48.592;8.868;2022-12-18T08:50:37;52.03;;;15.60;;
6828;SDS011;17930;48.592;8.868;2022-12-18T08:53:03;41.90;;;14.82;;
6828;SDS011;17930;48.592;8.868;2022-12-18T08:55:30;44.85;;;16.35;;
6828;SDS011;17930;48.592;8.868;2022-12-18T08:57:57;39.55;;;14.93;;
6828;SDS011;17930;48.592;8.868;2022-12-18T09:00:24;50.85;;;15.88;;
6828;SDS011;17930;48.592;8.868;2022-12-18T09:02:50;41.53;;;16.05;;
6828;SDS011;17930;48.592;8.868;2022-12-18T09:05:18;44.60;;;17.58;;
6828;SDS011;17930;48.592;8.868;2022-12-18T09:07:45;48.80;;;15.32;;
6828;SDS011;17930;48.592;8.868;2022-12-18T09:10:12;76.97;;;19.02;;
6828;SDS011;17930;48.592;8.868;2022-12-18T09:12:39;50.17;;;17.02;;
6828;SDS011;17930;48.592;8.868;2022-12-18T09:15:06;47.88;;;17.40;;
6828;SDS011;17930;48.592;8.868;2022-12-18T09:17:33;64.45;;;18.30;;
6828;SDS011;17930;48.592;8.868;2022-12-18T09:19:59;39.30;;;14.73;;
6828;SDS011;17930;48.592;8.868;2022-12-18T09:22:27;57.65;;;18.92;;
6828;SDS011;17930;48.592;8.868;2022-12-18T09:24:54;50.42;;;18.48;;
6828;SDS011;17930;48.592;8.868;2022-12-18T09:27:21;55.20;;;18.92;;
6828;SDS011;17930;48.592;8.868;2022-12-18T09:29:48;49.95;;;18.52;;
6828;SDS011;17930;48.592;8.868;2022-12-18T09:32:15;38.00;;;16.30;;
6828;SDS011;17930;48.592;8.868;2022-12-18T09:34:41;39.45;;;15.73;;
6828;SDS011;17930;48.592;8.868;2022-12-18T09:37:08;48.65;;;16.90;;
6828;SDS011;17930;48.592;8.868;2022-12-18T09:39:36;46.75;;;16.40;;
6828;SDS011;17930;48.592;8.868;2022-12-18T09:42:04;53.30;;;21.60;;
6828;SDS011;17930;48.592;8.868;2022-12-18T09:44:32;43.55;;;17.67;;
6828;SDS011;17930;48.592;8.868;2022-12-18T09:47:04;42.00;;;16.05;;
6828;SDS011;17930;48.592;8.868;2022-12-18T09:49:37;45.08;;;17.63;;
6828;SDS011;17930;48.592;8.868;2022-12-18T09:52:09;37.83;;;15.88;;
6828;SDS011;17930;48.592;8.868;2022-12-18T09:54:42;42.03;;;15.45;;
6828;SDS011;17930;48.592;8.868;2022-12-18T09:57:13;39.33;;;15.35;;
6828;SDS011;17930;48.592;8.868;2022-12-18T09:59:43;40.00;;;15.15;;
6828;SDS011;17930;48.592;8.868;2022-12-18T10:02:15;33.92;;;15.20;;
6828;SDS011;17930;48.592;8.868;2022-12-18T10:04:44;33.22;;;15.10;;
6828;SDS011;17930;48.592;8.868;2022-12-18T10:07:18;36.35;;;15.40;;
6828;SDS011;17930;48.592;8.868;2022-12-18T10:09:51;50.60;;;21.98;;
6828;SDS011;17930;48.592;8.868;2022-12-18T10:12:26;41.95;;;16.02;;
6828;SDS011;17930;48.592;8.868;2022-12-18T10:14:58;42.45;;;16.05;;
6828;SDS011;17930;48.592;8.868;2022-12-18T10:17:32;41.22;;;15.10;;
6828;SDS011;17930;48.592;8.868;2022-12-18T10:20:10;32.60;;;15.07;;
6828;SDS011;17930;48.592;8.868;2022-12-18T10:22:45;54.80;;;24.23;;
6828;SDS011;17930;48.592;8.868;2022-12-18T10:25:22;41.75;;;16.05;;
6828;SDS011;17930;48.592;8.868;2022-12-18T10:27:52;40.75;;;17.15;;
6828;SDS011;17930;48.592;8.868;2022-12-18T10:30:22;40.13;;;16.85;;
6828;SDS011;17930;48.592;8.868;2022-12-18T10:32:50;54.10;;;17.85;;
6828;SDS011;17930;48.592;8.868;2022-12-18T10:35:18;42.13;;;16.02;;
6828;SDS011;17930;48.592;8.868;2022-12-18T10:38:00;37.67;;;15.48;;
6828;SDS011;17930;48.592;8.868;2022-12-18T10:40:33;37.72;;;16.85;;
6828;SDS011;17930;48.592;8.868;2022-12-18T10:43:15;41.88;;;17.42;;
6828;SDS011;17930;48.592;8.868;2022-12-18T10:45:57;41.53;;;17.45;;
6828;SDS011;17930;48.592;8.868;2022-12-18T10:48:30;50.40;;;19.52;;
6828;SDS011;17930;48.592;8.868;2022-12-18T10:50:58;44.55;;;19.15;;
6828;SDS011;17930;48.592;8.868;2022-12-18T10:53:27;39.95;;;17.08;;
6828;SDS011;17930;48.592;8.868;2022-12-18T10:55:57;50.50;;;19.75;;
6828;SDS011;17930;48.592;8.868;2022-12-18T10:58:25;47.03;;;19.67;;
6828;SDS011;17930;48.592;8.868;2022-12-18T11:01:05;41.28;;;18.30;;
6828;SDS011;17930;48.592;8.868;2022-12-18T11:03:34;38.92;;;17.33;;
6828;SDS011;17930;48.592;8.868;2022-12-18T11:06:03;39.80;;;17.30;;
6828;SDS011;17930;48.592;8.868;2022-12-18T11:08:32;44.42;;;18.38;;
6828;SDS011;17930;48.592;8.868;2022-12-18T11:11:02;38.70;;;16.73;;
6828;SDS011;17930;48.592;8.868;2022-12-18T11:13:30;39.25;;;18.00;;
6828;SDS011;17930;48.592;8.868;2022-12-18T11:15:57;39.92;;;17.05;;
6828;SDS011;17930;48.592;8.868;2022-12-18T11:18:26;40.00;;;17.63;;
6828;SDS011;17930;48.592;8.868;2022-12-18T11:20:55;70.40;;;25.98;;
6828;SDS011;17930;48.592;8.868;2022-12-18T11:23:24;65.43;;;25.52;;
6828;SDS011;17930;48.592;8.868;2022-12-18T11:25:52;38.67;;;16.70;;
6828;SDS011;17930;48.592;8.868;2022-12-18T11:28:28;45.35;;;17.88;;
6828;SDS011;17930;48.592;8.868;2022-12-18T11:31:23;78.80;;;29.00;;
6828;SDS011;17930;48.592;8.868;2022-12-18T11:34:03;150.63;;;49.95;;
6828;SDS011;17930;48.592;8.868;2022-12-18T11:36:36;182.32;;;61.28;;
6828;SDS011;17930;48.592;8.868;2022-12-18T11:39:07;125.45;;;47.90;;
6828;SDS011;17930;48.592;8.868;2022-12-18T11:41:41;47.72;;;19.88;;
6828;SDS011;17930;48.592;8.868;2022-12-18T11:44:35;44.42;;;17.98;;
6828;SDS011;17930;48.592;8.868;2022-12-18T11:47:09;46.75;;;17.05;;
6828;SDS011;17930;48.592;8.868;2022-12-18T11:49:46;45.20;;;19.40;;
6828;SDS011;17930;48.592;8.868;2022-12-18T11:52:16;73.47;;;30.00;;
6828;SDS011;17930;48.592;8.868;2022-12-18T11:54:50;56.95;;;26.85;;
6828;SDS011;17930;48.592;8.868;2022-12-18T11:57:20;68.88;;;33.88;;
6828;SDS011;17930;48.592;8.868;2022-12-18T12:00:00;44.38;;;20.05;;
6828;SDS011;17930;48.592;8.868;2022-12-18T12:05:58;38.20;;;20.17;;
6828;SDS011;17930;48.592;8.868;2022-12-18T12:08:36;33.63;;;17.48;;
6828;SDS011;17930;48.592;8.868;2022-12-18T12:11:16;41.45;;;19.92;;
6828;SDS011;17930;48.592;8.868;2022-12-18T12:13:59;38.83;;;15.98;;
6828;SDS011;17930;48.592;8.868;2022-12-18T12:16:45;33.70;;;17.13;;
6828;SDS011;17930;48.592;8.868;2022-12-18T12:19:22;37.78;;;17.20;;
6828;SDS011;17930;48.592;8.868;2022-12-18T12:22:08;108.00;;;41.13;;
6828;SDS011;17930;48.592;8.868;2022-12-18T12:24:48;37.45;;;17.10;;
6828;SDS011;17930;48.592;8.868;2022-12-18T12:27:26;39.75;;;18.58;;
6828;SDS011;17930;48.592;8.868;2022-12-18T12:30:03;39.97;;;17.52;;
6828;SDS011;17930;48.592;8.868;2022-12-18T12:32:37;59.47;;;28.55;;
6828;SDS011;17930;48.592;8.868;2022-12-18T12:35:20;70.30;;;31.95;;
6828;SDS011;17930;48.592;8.868;2022-12-18T12:37:55;69.28;;;28.70;;
6828;SDS011;17930;48.592;8.868;2022-12-18T12:40:31;36.88;;;16.80;;
6828;SDS011;17930;48.592;8.868;2022-12-18T12:43:02;48.22;;;19.63;;
6828;SDS011;17930;48.592;8.868;2022-12-18T12:45:40;71.35;;;26.73;;
6828;SDS011;17930;48.592;8.868;2022-12-18T12:48:14;72.15;;;31.27;;
6828;SDS011;17930;48.592;8.868;2022-12-18T12:50:45;103.95;;;42.25;;
6828;SDS011;17930;48.592;8.868;2022-12-18T12:53:16;43.65;;;20.27;;
6828;SDS011;17930;48.592;8.868;2022-12-18T12:55:49;42.75;;;17.85;;
6828;SDS011;17930;48.592;8.868;2022-12-18T12:58:19;47.38;;;20.65;;
6828;SDS011;17930;48.592;8.868;2022-12-18T13:00:58;71.35;;;28.83;;
6828;SDS011;17930;48.592;8.868;2022-12-18T13:03:40;40.55;;;18.15;;
6828;SDS011;17930;48.592;8.868;2022-12-18T13:06:14;68.85;;;28.60;;
6828;SDS011;17930;48.592;8.868;2022-12-18T13:08:54;49.65;;;22.38;;
6828;SDS011;17930;48.592;8.868;2022-12-18T13:11:34;51.17;;;23.75;;
6828;SDS011;17930;48.592;8.868;2022-12-18T13:14:21;40.67;;;18.33;;
6828;SDS011;17930;48.592;8.868;2022-12-18T13:16:50;38.03;;;17.13;;
6828;SDS011;17930;48.592;8.868;2022-12-18T13:19:25;36.88;;;18.80;;
6828;SDS011;17930;48.592;8.868;2022-12-18T13:21:53;39.08;;;18.67;;
6828;SDS011;17930;48.592;8.868;2022-12-18T13:24:23;39.63;;;19.45;;
6828;SDS011;17930;48.592;8.868;2022-12-18T13:26:52;40.22;;;18.50;;
6828;SDS011;17930;48.592;8.868;2022-12-18T13:32:20;42.50;;;17.67;;
6828;SDS011;17930;48.592;8.868;2022-12-18T13:34:50;38.15;;;16.13;;
6828;SDS011;17930;48.592;8.868;2022-12-18T13:37:56;40.10;;;15.82;;
6828;SDS011;17930;48.592;8.868;2022-12-18T13:43:27;35.67;;;16.80;;
6828;SDS011;17930;48.592;8.868;2022-12-18T13:46:20;36.47;;;15.02;;
6828;SDS011;17930;48.592;8.868;2022-12-18T13:48:55;32.95;;;13.70;;
6828;SDS011;17930;48.592;8.868;2022-12-18T13:51:24;31.02;;;15.10;;
6828;SDS011;17930;48.592;8.868;2022-12-18T13:53:53;26.27;;;12.60;;
6828;SDS011;17930;48.592;8.868;2022-12-18T13:56:22;30.10;;;12.55;;
6828;SDS011;17930;48.592;8.868;2022-12-18T13:59:10;30.30;;;12.50;;
6828;SDS011;17930;48.592;8.868;2022-12-18T14:01:43;32.70;;;12.98;;
6828;SDS011;17930;48.592;8.868;2022-12-18T14:04:12;31.15;;;12.13;;
6828;SDS011;17930;48.592;8.868;2022-12-18T14:06:45;32.25;;;13.05;;
6828;SDS011;17930;48.592;8.868;2022-12-18T14:09:14;37.60;;;14.30;;
6828;SDS011;17930;48.592;8.868;2022-12-18T14:11:47;29.48;;;12.93;;
6828;SDS011;17930;48.592;8.868;2022-12-18T14:14:15;28.75;;;13.43;;
6828;SDS011;17930;48.592;8.868;2022-12-18T14:16:43;30.90;;;13.27;;
6828;SDS011;17930;48.592;8.868;2022-12-18T14:19:12;36.95;;;15.27;;
6828;SDS011;17930;48.592;8.868;2022-12-18T14:21:45;36.83;;;17.05;;
6828;SDS011;17930;48.592;8.868;2022-12-18T14:24:15;31.08;;;15.15;;
6828;SDS011;17930;48.592;8.868;2022-12-18T14:26:43;38.75;;;16.48;;
6828;SDS011;17930;48.592;8.868;2022-12-18T14:32:07;39.05;;;17.67;;
6828;SDS011;17930;48.592;8.868;2022-12-18T14:34:37;41.15;;;18.83;;
6828;SDS011;17930;48.592;8.868;2022-12-18T14:37:04;38.95;;;16.10;;
6828;SDS011;17930;48.592;8.868;2022-12-18T14:39:33;35.88;;;15.23;;
6828;SDS011;17930;48.592;8.868;2022-12-18T14:42:00;28.80;;;13.70;;
6828;SDS011;17930;48.592;8.868;2022-12-18T14:44:26;28.35;;;13.00;;
6828;SDS011;17930;48.592;8.868;2022-12-18T14:46:54;32.22;;;13.38;;
6828;SDS011;17930;48.592;8.868;2022-12-18T14:49:23;33.13;;;12.82;;
6828;SDS011;17930;48.592;8.868;2022-12-18T14:51:53;33.33;;;14.20;;
6828;SDS011;17930;48.592;8.868;2022-12-18T14:54:22;31.17;;;13.65;;
6828;SDS011;17930;48.592;8.868;2022-12-18T14:56:51;31.45;;;12.98;;
6828;SDS011;17930;48.592;8.868;2022-12-18T14:59:24;30.70;;;14.25;;
6828;SDS011;17930;48.592;8.868;2022-12-18T15:01:56;29.60;;;13.23;;
6828;SDS011;17930;48.592;8.868;2022-12-18T15:04:26;35.15;;;12.88;;
6828;SDS011;17930;48.592;8.868;2022-12-18T15:07:05;32.80;;;13.25;;